Time;durP1;ratioP1;P1;durP2;ratioP2;P2;SDS_P1;SDS_P2;PMS_P1;PMS_P2;Temp;Humidity;BMP_temperature;BMP_pressure;BME280_temperature;BME280_humidity;BME280_pressure;Samples;Min_cycle;Max_cycle;Signal;HPM_P1;HPM_P2
2022/08/01 00:02:10;;;;;;;;;;;18.80;99.90;;;;;;5099816;28;20267;-67
2022/08/01 00:04:36;;;;;;;;;;;18.80;99.90;;;;;;5089342;28;20010;-67
2022/08/01 00:07:01;;;;;;;;;;;18.80;99.90;;;;;;5095198;28;19965;-67
2022/08/01 00:09:27;;;;;;;;;;;18.80;99.90;;;;;;5097669;28;19916;-67
2022/08/01 00:11:52;;;;;;;;;;;18.90;99.90;;;;;;5099772;28;19929;-68
2022/08/01 00:14:18;;;;;;;;;;;19.00;99.90;;;;;;5097676;28;20002;-67
2022/08/01 00:16:43;;;;;;;;;;;18.80;99.90;;;;;;5094986;28;19920;-67
2022/08/01 00:19:09;;;;;;;;;;;18.80;99.90;;;;;;5103165;28;20328;-68
2022/08/01 00:21:35;;;;;;;;;;;18.90;99.90;;;;;;5105749;28;19918;-67
2022/08/01 00:24:00;;;;;;;;;;;19.00;99.90;;;;;;5104293;28;19912;-67
2022/08/01 00:26:26;;;;;;;;;;;19.00;99.90;;;;;;5091972;28;19912;-68
2022/08/01 00:28:51;;;;;;;;;;;18.90;99.90;;;;;;5092512;28;19990;-67
2022/08/01 00:31:17;;;;;;;;;;;18.80;99.90;;;;;;5089855;28;20370;-68
2022/08/01 00:33:42;;;;;;;;;;;18.70;99.90;;;;;;5097453;28;19972;-68
2022/08/01 00:36:08;;;;;;;;;;;18.80;99.90;;;;;;5089066;28;19923;-67
2022/08/01 00:38:34;;;;;;;;;;;18.80;99.90;;;;;;5093002;28;19971;-68
2022/08/01 00:40:59;;;;;;;;;;;18.80;99.90;;;;;;5094423;28;19962;-67
2022/08/01 00:43:25;;;;;;;;;;;18.80;99.90;;;;;;5093452;28;19916;-66
2022/08/01 00:45:50;;;;;;;;;;;18.80;99.90;;;;;;5090395;28;19920;-67
2022/08/01 00:48:16;;;;;;;;;;;18.90;99.90;;;;;;5084789;28;20282;-67
2022/08/01 00:50:41;;;;;;;;;;;18.90;99.90;;;;;;5100354;28;20350;-67
2022/08/01 00:53:07;;;;;;;;;;;18.90;99.90;;;;;;5098140;28;19912;-68
2022/08/01 00:55:33;;;;;;;;;;;18.80;99.90;;;;;;5102807;28;19919;-67
2022/08/01 00:57:58;;;;;;;;;;;18.90;99.90;;;;;;5099441;28;20258;-67
2022/08/01 01:00:24;;;;;;;;;;;18.90;99.90;;;;;;5098781;28;19918;-67
2022/08/01 01:02:50;;;;;;;;;;;18.80;99.90;;;;;;5089968;28;20335;-67
2022/08/01 01:05:16;;;;;;;;;;;18.70;99.90;;;;;;5099336;28;19912;-67
2022/08/01 01:07:50;;;;;;;;;;;18.80;99.90;;;;;;5106305;28;20325;-67
2022/08/01 01:10:28;;;;;;;;;;;18.80;99.90;;;;;;5105048;28;19919;-67
2022/08/01 01:13:01;;;;;;;;;;;18.80;99.90;;;;;;5099286;28;19927;-67
2022/08/01 01:15:36;;;;;;;;;;;18.80;99.90;;;;;;5096045;28;19912;-68
2022/08/01 01:18:23;;;;;;;;;;;18.70;99.90;;;;;;5074700;28;20278;-67
2022/08/01 01:20:58;;;;;;;;;;;18.90;99.90;;;;;;5076135;28;19920;-67
2022/08/01 01:23:41;;;;;;;;;;;18.90;99.90;;;;;;5091359;28;19950;-67
2022/08/01 01:26:17;;;;;;;;;;;18.70;99.90;;;;;;5097305;28;19916;-67
2022/08/01 01:28:48;;;;;;;;;;;18.60;99.90;;;;;;5097914;28;19969;-68
2022/08/01 01:31:15;;;;;;;;;;;18.40;99.90;;;;;;5092375;28;20360;-67
2022/08/01 01:33:41;;;;;;;;;;;18.40;99.90;;;;;;5098445;28;20002;-67
2022/08/01 01:36:08;;;;;;;;;;;18.30;99.90;;;;;;5099523;28;19916;-68
2022/08/01 01:38:35;;;;;;;;;;;18.30;99.90;;;;;;5101348;28;19928;-67
2022/08/01 01:41:02;;;;;;;;;;;18.30;99.90;;;;;;5081314;28;19980;-68
2022/08/01 01:43:29;;;;;;;;;;;18.20;99.90;;;;;;5097926;28;19921;-67
2022/08/01 01:45:54;;;;;;;;;;;18.20;99.90;;;;;;5094808;28;19911;-67
2022/08/01 01:48:21;;;;;;;;;;;18.20;99.90;;;;;;5098353;28;19916;-67
2022/08/01 01:50:47;;;;;;;;;;;18.10;99.90;;;;;;5089379;28;20350;-67
2022/08/01 01:53:14;;;;;;;;;;;18.10;99.90;;;;;;5081920;28;20031;-67
2022/08/01 01:55:40;;;;;;;;;;;18.00;99.90;;;;;;5084609;28;20369;-68
2022/08/01 01:58:06;;;;;;;;;;;18.00;99.90;;;;;;5079161;28;19967;-67
2022/08/01 02:00:33;;;;;;;;;;;18.10;99.90;;;;;;5098369;28;20074;-67
2022/08/01 02:03:00;;;;;;;;;;;18.20;99.90;;;;;;5099225;28;19912;-67
2022/08/01 02:05:27;;;;;;;;;;;18.30;99.90;;;;;;5094080;28;19911;-67
2022/08/01 02:07:54;;;;;;;;;;;18.10;99.90;;;;;;5095202;28;19937;-68
2022/08/01 02:10:19;;;;;;;;;;;18.00;99.90;;;;;;5099929;28;19923;-67
2022/08/01 02:12:45;;;;;;;;;;;17.90;99.90;;;;;;5092943;28;19920;-67
2022/08/01 02:15:12;;;;;;;;;;;17.80;99.90;;;;;;5097952;28;20270;-67
2022/08/01 02:17:41;;;;;;;;;;;17.70;99.90;;;;;;5093603;28;19963;-67
2022/08/01 02:20:07;;;;;;;;;;;17.70;99.90;;;;;;5099243;28;19972;-68
2022/08/01 02:22:35;;;;;;;;;;;17.60;99.90;;;;;;5096081;28;20333;-67
2022/08/01 02:25:01;;;;;;;;;;;17.60;99.90;;;;;;5093426;28;19939;-68
2022/08/01 02:27:43;;;;;;;;;;;17.50;99.90;;;;;;5098219;28;19959;-68
2022/08/01 02:30:11;;;;;;;;;;;17.50;99.90;;;;;;5092062;28;19928;-67
2022/08/01 02:32:45;;;;;;;;;;;17.70;99.90;;;;;;5090356;28;22699;-67
2022/08/01 02:35:13;;;;;;;;;;;17.60;99.90;;;;;;5103299;28;19918;-67
2022/08/01 02:37:40;;;;;;;;;;;17.60;99.90;;;;;;5101206;28;19912;-68
2022/08/01 02:40:08;;;;;;;;;;;17.50;99.90;;;;;;5099952;28;20617;-67
2022/08/01 02:42:34;;;;;;;;;;;17.40;99.90;;;;;;5100698;28;19918;-66
2022/08/01 02:45:02;;;;;;;;;;;17.30;99.90;;;;;;5085188;28;19920;-66
2022/08/01 02:47:28;;;;;;;;;;;17.20;99.90;;;;;;5098454;28;19958;-68
2022/08/01 02:49:55;;;;;;;;;;;17.20;99.90;;;;;;5098380;28;20010;-67
2022/08/01 02:52:21;;;;;;;;;;;17.30;99.90;;;;;;5086718;28;19920;-67
2022/08/01 02:54:48;;;;;;;;;;;17.30;99.90;;;;;;5094057;28;19935;-67
2022/08/01 02:57:14;;;;;;;;;;;17.20;99.90;;;;;;5103304;28;19963;-67
2022/08/01 02:59:41;;;;;;;;;;;17.10;99.90;;;;;;5079104;28;20398;-67
2022/08/01 03:02:07;;;;;;;;;;;17.00;99.90;;;;;;5092989;28;19943;-67
2022/08/01 03:04:35;;;;;;;;;;;17.00;99.90;;;;;;5102151;28;19908;-67
2022/08/01 03:07:02;;;;;;;;;;;17.00;99.90;;;;;;5094881;28;20358;-67
2022/08/01 03:09:29;;;;;;;;;;;16.90;99.90;;;;;;5095828;28;19920;-67
2022/08/01 03:11:57;;;;;;;;;;;16.90;99.90;;;;;;5091615;28;20297;-67
2022/08/01 03:14:23;;;;;;;;;;;17.00;99.90;;;;;;5096154;28;19920;-67
2022/08/01 03:16:49;;;;;;;;;;;16.90;99.90;;;;;;5084194;28;19955;-67
2022/08/01 03:19:15;;;;;;;;;;;16.80;99.90;;;;;;5079010;28;19943;-67
2022/08/01 03:21:43;;;;;;;;;;;16.80;99.90;;;;;;5076560;28;19912;-67
2022/08/01 03:24:09;;;;;;;;;;;16.80;99.90;;;;;;5104956;28;19912;-67
2022/08/01 03:26:36;;;;;;;;;;;16.80;99.90;;;;;;5094421;28;20007;-67
2022/08/01 03:29:06;;;;;;;;;;;16.80;99.90;;;;;;5095345;28;20210;-65
2022/08/01 03:31:34;;;;;;;;;;;17.00;99.90;;;;;;5094753;28;19932;-67
2022/08/01 03:34:00;;;;;;;;;;;17.20;99.90;;;;;;5080791;28;19981;-68
2022/08/01 03:36:28;;;;;;;;;;;17.20;99.90;;;;;;5096658;28;19951;-67
2022/08/01 03:38:56;;;;;;;;;;;17.30;99.90;;;;;;5095048;28;20362;-67
2022/08/01 03:41:23;;;;;;;;;;;17.40;99.90;;;;;;5095227;28;19916;-68
2022/08/01 03:43:55;;;;;;;;;;;17.60;99.90;;;;;;5106570;28;20359;-66
2022/08/01 03:46:22;;;;;;;;;;;17.70;99.90;;;;;;5107490;28;20281;-67
2022/08/01 03:48:48;;;;;;;;;;;17.90;99.90;;;;;;5084039;28;19964;-67
2022/08/01 03:51:15;;;;;;;;;;;17.90;99.90;;;;;;5096577;28;20796;-66
2022/08/01 03:53:42;;;;;;;;;;;17.90;99.90;;;;;;5079479;28;19955;-68
2022/08/01 03:56:08;;;;;;;;;;;17.70;99.90;;;;;;5082987;28;19912;-67
2022/08/01 03:58:34;;;;;;;;;;;17.50;99.90;;;;;;5103437;28;19968;-67
2022/08/01 04:01:00;;;;;;;;;;;17.50;99.90;;;;;;5084680;28;20374;-68
2022/08/01 04:03:26;;;;;;;;;;;17.30;99.90;;;;;;5102154;28;19999;-66
2022/08/01 04:05:52;;;;;;;;;;;17.20;99.90;;;;;;5104682;28;20351;-66
2022/08/01 04:08:17;;;;;;;;;;;17.20;99.90;;;;;;5093988;28;20290;-67
2022/08/01 04:10:43;;;;;;;;;;;17.20;99.90;;;;;;5080719;28;19927;-67
2022/08/01 04:13:08;;;;;;;;;;;17.10;99.90;;;;;;5096191;28;19915;-67
2022/08/01 04:15:34;;;;;;;;;;;17.20;99.90;;;;;;5091911;28;19912;-68
2022/08/01 04:18:00;;;;;;;;;;;17.40;99.90;;;;;;5090927;28;19933;-67
2022/08/01 04:20:25;;;;;;;;;;;17.40;99.90;;;;;;5104717;28;20014;-68
2022/08/01 04:22:51;;;;;;;;;;;17.30;99.90;;;;;;5086544;28;20311;-68
2022/08/01 04:25:27;;;;;;;;;;;17.20;99.90;;;;;;5094853;28;19912;-68
2022/08/01 04:27:54;;;;;;;;;;;17.30;99.90;;;;;;5101315;28;19963;-67
2022/08/01 04:30:22;;;;;;;;;;;17.10;99.90;;;;;;5102037;28;19977;-67
2022/08/01 04:32:49;;;;;;;;;;;17.20;99.90;;;;;;5094168;28;19931;-67
2022/08/01 04:35:16;;;;;;;;;;;17.10;99.90;;;;;;5103435;28;20716;-67
2022/08/01 04:37:44;;;;;;;;;;;17.10;99.90;;;;;;5102905;28;19915;-66
2022/08/01 04:40:10;;;;;;;;;;;17.10;99.90;;;;;;5096711;28;19912;-67
2022/08/01 04:42:36;;;;;;;;;;;17.10;99.90;;;;;;5101369;28;19927;-67
2022/08/01 04:45:02;;;;;;;;;;;17.10;99.90;;;;;;5103548;28;19988;-68
2022/08/01 04:47:29;;;;;;;;;;;17.20;99.90;;;;;;5100542;28;20360;-66
2022/08/01 04:49:56;;;;;;;;;;;17.10;99.90;;;;;;5092736;28;19916;-67
2022/08/01 04:52:22;;;;;;;;;;;17.20;99.90;;;;;;5091551;28;19920;-67
2022/08/01 04:54:47;;;;;;;;;;;17.30;99.90;;;;;;5089778;28;19912;-67
2022/08/01 04:57:14;;;;;;;;;;;17.30;99.90;;;;;;5095308;28;19912;-67
2022/08/01 04:59:43;;;;;;;;;;;17.50;99.90;;;;;;5085620;28;20001;-68
2022/08/01 05:02:10;;;;;;;;;;;17.50;99.90;;;;;;5094901;28;19957;-66
2022/08/01 05:04:36;;;;;;;;;;;17.40;99.90;;;;;;5093253;28;19927;-68
2022/08/01 05:07:02;;;;;;;;;;;17.60;99.90;;;;;;5095487;28;20014;-67
2022/08/01 05:09:28;;;;;;;;;;;17.70;99.90;;;;;;5094319;28;19951;-67
2022/08/01 05:11:53;;;;;;;;;;;17.80;99.90;;;;;;5095758;28;19982;-68
2022/08/01 05:14:19;;;;;;;;;;;17.80;99.90;;;;;;5075069;28;19920;-68
2022/08/01 05:16:45;;;;;;;;;;;17.70;99.90;;;;;;5079840;28;20422;-68
2022/08/01 05:19:11;;;;;;;;;;;17.70;99.90;;;;;;5093674;28;19917;-66
2022/08/01 05:21:37;;;;;;;;;;;17.80;99.90;;;;;;5098371;28;20251;-67
2022/08/01 05:24:03;;;;;;;;;;;17.70;99.90;;;;;;5093857;28;19916;-68
2022/08/01 05:26:29;;;;;;;;;;;17.80;99.90;;;;;;5095833;28;19911;-67
2022/08/01 05:28:54;;;;;;;;;;;17.80;99.90;;;;;;5097180;28;19927;-68
2022/08/01 05:31:20;;;;;;;;;;;17.80;99.90;;;;;;5094649;28;20398;-68
2022/08/01 05:33:45;;;;;;;;;;;17.80;99.90;;;;;;5075655;28;19912;-67
2022/08/01 05:36:11;;;;;;;;;;;17.90;99.90;;;;;;5075171;28;19920;-67
2022/08/01 05:38:37;;;;;;;;;;;18.10;99.90;;;;;;5084162;28;19920;-67
2022/08/01 05:41:02;;;;;;;;;;;18.10;99.90;;;;;;5088924;28;19919;-67
2022/08/01 05:43:28;;;;;;;;;;;18.20;99.90;;;;;;5090234;28;19990;-67
2022/08/01 05:45:53;;;;;;;;;;;18.20;99.90;;;;;;5092350;28;19918;-67
2022/08/01 05:48:19;;;;;;;;;;;18.10;99.90;;;;;;5101799;28;20232;-66
2022/08/01 05:50:44;;;;;;;;;;;18.00;99.90;;;;;;5095179;28;19999;-68
2022/08/01 05:53:10;;;;;;;;;;;18.00;99.90;;;;;;5074582;28;19922;-67
2022/08/01 05:55:36;;;;;;;;;;;17.90;99.90;;;;;;5094493;28;20264;-67
2022/08/01 05:58:02;;;;;;;;;;;18.00;99.90;;;;;;5087649;28;19927;-67
2022/08/01 06:00:28;;;;;;;;;;;18.00;99.90;;;;;;5089281;28;19998;-67
2022/08/01 06:02:53;;;;;;;;;;;18.00;99.90;;;;;;5089605;28;19927;-67
2022/08/01 06:05:19;;;;;;;;;;;18.00;99.90;;;;;;5096799;28;20401;-67
2022/08/01 06:07:44;;;;;;;;;;;18.10;99.90;;;;;;5092859;28;19920;-68
2022/08/01 06:10:10;;;;;;;;;;;18.10;99.90;;;;;;5087096;28;19916;-67
2022/08/01 06:12:36;;;;;;;;;;;18.20;99.90;;;;;;5089741;28;19931;-68
2022/08/01 06:15:02;;;;;;;;;;;18.20;99.90;;;;;;5092265;28;19919;-68
2022/08/01 06:17:27;;;;;;;;;;;18.20;99.90;;;;;;5096540;28;19912;-68
2022/08/01 06:19:53;;;;;;;;;;;18.20;99.90;;;;;;5087170;28;19997;-68
2022/08/01 06:22:19;;;;;;;;;;;18.40;99.90;;;;;;5096413;28;20398;-67
2022/08/01 06:24:44;;;;;;;;;;;18.30;99.90;;;;;;5094022;28;20550;-68
2022/08/01 06:27:10;;;;;;;;;;;18.30;99.70;;;;;;5092773;28;20018;-67
2022/08/01 06:29:35;;;;;;;;;;;18.30;97.40;;;;;;5087654;28;19961;-67
2022/08/01 06:32:01;;;;;;;;;;;18.20;96.20;;;;;;5067429;28;19927;-67
2022/08/01 06:34:26;;;;;;;;;;;18.10;98.40;;;;;;5081208;28;19916;-68
2022/08/01 06:36:52;;;;;;;;;;;18.20;97.30;;;;;;5054053;28;20370;-66
2022/08/01 06:39:17;;;;;;;;;;;18.20;96.50;;;;;;5061728;28;19954;-67
2022/08/01 06:41:45;;;;;;;;;;;18.20;96.40;;;;;;5067735;28;19916;-68
2022/08/01 06:44:11;;;;;;;;;;;18.30;95.40;;;;;;5069253;28;19912;-68
2022/08/01 06:46:37;;;;;;;;;;;18.50;95.80;;;;;;5045134;28;19920;-69
2022/08/01 06:49:03;;;;;;;;;;;18.60;94.40;;;;;;5063522;28;19999;-69
2022/08/01 06:51:29;;;;;;;;;;;18.60;93.40;;;;;;5074652;28;19935;-68
2022/08/01 06:53:54;;;;;;;;;;;18.60;94.20;;;;;;5075984;28;19916;-68
2022/08/01 06:56:20;;;;;;;;;;;18.70;93.50;;;;;;5074077;28;20015;-68
2022/08/01 06:58:45;;;;;;;;;;;18.80;93.50;;;;;;5070574;28;19928;-68
2022/08/01 07:01:11;;;;;;;;;;;18.90;92.90;;;;;;5071953;28;20394;-68
2022/08/01 07:03:37;;;;;;;;;;;18.90;92.10;;;;;;5070457;28;20282;-68
2022/08/01 07:06:03;;;;;;;;;;;19.00;92.00;;;;;;5068969;28;19912;-68
2022/08/01 07:08:29;;;;;;;;;;;19.10;90.80;;;;;;5055168;28;19928;-67
2022/08/01 07:10:55;;;;;;;;;;;19.00;90.20;;;;;;5071442;28;20450;-68
2022/08/01 07:13:24;;;;;;;;;;;19.00;88.70;;;;;;5069662;28;20516;-68
2022/08/01 07:15:50;;;;;;;;;;;19.10;89.20;;;;;;5069439;28;20262;-67
2022/08/01 07:18:15;;;;;;;;;;;19.10;88.30;;;;;;5069817;28;20343;-67
2022/08/01 07:20:41;;;;;;;;;;;19.00;88.50;;;;;;5052043;28;19912;-66
2022/08/01 07:23:07;;;;;;;;;;;19.00;90.00;;;;;;5071951;28;19947;-66
2022/08/01 07:25:32;;;;;;;;;;;19.10;86.90;;;;;;5072030;28;19928;-66
2022/08/01 07:27:58;;;;;;;;;;;19.10;87.00;;;;;;5073325;28;20023;-66
2022/08/01 07:30:23;;;;;;;;;;;19.30;87.20;;;;;;5069663;28;20062;-68
2022/08/01 07:32:49;;;;;;;;;;;19.40;87.10;;;;;;5072452;28;19921;-68
2022/08/01 07:35:15;;;;;;;;;;;19.50;85.10;;;;;;5066659;28;19920;-67
2022/08/01 07:37:40;;;;;;;;;;;19.50;85.30;;;;;;5070490;28;19913;-67
2022/08/01 07:40:06;;;;;;;;;;;19.50;85.00;;;;;;5073893;28;19916;-67
2022/08/01 07:42:32;;;;;;;;;;;19.40;84.60;;;;;;5076832;28;19919;-67
2022/08/01 07:44:57;;;;;;;;;;;19.30;84.70;;;;;;5077488;28;19912;-67
2022/08/01 07:47:24;;;;;;;;;;;19.30;84.50;;;;;;5067357;28;20002;-67
2022/08/01 07:49:49;;;;;;;;;;;19.40;86.20;;;;;;5067112;28;19919;-67
2022/08/01 07:52:15;;;;;;;;;;;19.50;87.90;;;;;;5070726;28;19920;-68
2022/08/01 07:54:40;;;;;;;;;;;19.50;86.70;;;;;;5052319;28;20373;-68
2022/08/01 07:57:06;;;;;;;;;;;19.40;84.80;;;;;;5074871;28;20278;-67
2022/08/01 07:59:32;;;;;;;;;;;19.20;85.00;;;;;;5061136;28;19920;-67
2022/08/01 08:01:58;;;;;;;;;;;19.00;85.90;;;;;;5077676;28;20358;-68
2022/08/01 08:04:24;;;;;;;;;;;19.10;86.00;;;;;;5072370;28;20374;-68
2022/08/01 08:06:49;;;;;;;;;;;19.20;85.10;;;;;;5069855;28;20416;-68
2022/08/01 08:09:15;;;;;;;;;;;19.30;85.40;;;;;;5072137;28;19912;-65
2022/08/01 08:11:42;;;;;;;;;;;19.40;84.10;;;;;;5076602;28;20370;-67
2022/08/01 08:14:07;;;;;;;;;;;19.50;83.10;;;;;;5064649;28;19921;-67
2022/08/01 08:16:33;;;;;;;;;;;19.50;82.40;;;;;;5078112;28;19977;-66
2022/08/01 08:18:58;;;;;;;;;;;19.50;82.40;;;;;;5082340;28;19939;-67
2022/08/01 08:21:24;;;;;;;;;;;19.40;83.70;;;;;;5078190;28;19919;-68
2022/08/01 08:26:34;;;;;;;;;;;19.50;82.60;;;;;;5078099;28;20365;-66
2022/08/01 08:28:59;;;;;;;;;;;19.40;82.20;;;;;;5084617;28;19912;-66
2022/08/01 08:31:25;;;;;;;;;;;19.50;84.70;;;;;;5094557;28;19934;-67
2022/08/01 08:33:50;;;;;;;;;;;19.70;83.10;;;;;;5098314;28;20278;-66
2022/08/01 08:36:16;;;;;;;;;;;19.90;82.50;;;;;;5077419;28;19916;-67
2022/08/01 08:38:41;;;;;;;;;;;19.90;82.00;;;;;;5082983;28;20002;-67
2022/08/01 08:41:08;;;;;;;;;;;20.10;86.80;;;;;;5072524;28;20379;-68
2022/08/01 08:43:34;;;;;;;;;;;20.50;85.20;;;;;;5089853;28;20281;-69
2022/08/01 08:46:00;;;;;;;;;;;20.70;79.30;;;;;;5097907;28;20323;-67
2022/08/01 08:48:26;;;;;;;;;;;20.60;79.10;;;;;;5087082;28;19927;-69
2022/08/01 08:50:52;;;;;;;;;;;20.40;80.00;;;;;;5101310;28;19912;-69
2022/08/01 08:53:18;;;;;;;;;;;20.50;80.10;;;;;;5093762;28;19919;-68
2022/08/01 08:55:44;;;;;;;;;;;20.60;79.80;;;;;;5085762;28;19952;-68
2022/08/01 08:58:13;;;;;;;;;;;20.70;79.40;;;;;;5095772;28;19912;-69
2022/08/01 09:00:39;;;;;;;;;;;20.70;79.20;;;;;;5090725;28;19916;-68
2022/08/01 09:03:07;;;;;;;;;;;20.60;79.80;;;;;;5095449;28;19912;-69
2022/08/01 09:05:33;;;;;;;;;;;20.60;80.30;;;;;;5100849;28;19912;-67
2022/08/01 09:07:59;;;;;;;;;;;20.70;79.90;;;;;;5095458;28;19912;-68
2022/08/01 09:10:25;;;;;;;;;;;20.70;79.90;;;;;;5092096;28;19912;-67
2022/08/01 09:13:10;;;;;;;;;;;20.80;80.20;;;;;;5088362;28;20028;-69
2022/08/01 09:15:43;;;;;;;;;;;21.10;79.10;;;;;;5095646;28;20297;-66
2022/08/01 09:18:26;;;;;;;;;;;21.30;79.60;;;;;;5092435;28;20428;-68
2022/08/01 09:21:06;;;;;;;;;;;21.50;78.70;;;;;;5094495;28;19916;-65
2022/08/01 09:23:32;;;;;;;;;;;21.60;78.30;;;;;;5092842;28;19951;-66
2022/08/01 09:25:58;;;;;;;;;;;21.80;77.50;;;;;;5093950;28;19934;-68
2022/08/01 09:28:28;;;;;;;;;;;21.80;78.00;;;;;;5082815;28;20511;-68
2022/08/01 09:30:55;;;;;;;;;;;21.80;77.80;;;;;;5073468;28;19941;-67
2022/08/01 09:33:20;;;;;;;;;;;21.90;76.30;;;;;;5092968;28;19986;-65
2022/08/01 09:35:53;;;;;;;;;;;22.00;76.40;;;;;;5091403;28;20350;-70
2022/08/01 09:38:20;;;;;;;;;;;22.20;79.80;;;;;;5078118;28;19918;-69
2022/08/01 09:40:46;;;;;;;;;;;22.50;75.40;;;;;;5096458;28;19939;-69
2022/08/01 09:43:12;;;;;;;;;;;22.40;75.20;;;;;;5088686;28;19917;-67
2022/08/01 09:45:38;;;;;;;;;;;22.50;74.30;;;;;;5093224;28;20386;-69
2022/08/01 09:48:07;;;;;;;;;;;22.20;74.80;;;;;;5091040;28;20106;-67
2022/08/01 09:50:41;;;;;;;;;;;22.30;78.40;;;;;;5089324;28;19916;-69
2022/08/01 09:53:07;;;;;;;;;;;22.50;75.30;;;;;;5095051;28;19916;-68
2022/08/01 09:55:32;;;;;;;;;;;22.40;75.30;;;;;;5087526;28;19938;-68
2022/08/01 09:58:00;;;;;;;;;;;22.50;76.90;;;;;;5094322;28;19946;-68
2022/08/01 10:00:26;;;;;;;;;;;22.60;76.50;;;;;;5092231;28;20017;-69
2022/08/01 10:02:52;;;;;;;;;;;22.70;75.20;;;;;;5092289;28;20012;-69
2022/08/01 10:05:17;;;;;;;;;;;22.90;75.20;;;;;;5092703;28;19924;-68
2022/08/01 10:07:59;;;;;;;;;;;23.10;73.70;;;;;;5092686;28;19920;-68
2022/08/01 10:10:25;;;;;;;;;;;22.90;73.10;;;;;;5094079;28;19946;-69
2022/08/01 10:12:51;;;;;;;;;;;23.00;76.00;;;;;;5089286;28;19920;-68
2022/08/01 10:15:17;;;;;;;;;;;23.00;73.20;;;;;;5091262;28;20713;-68
2022/08/01 10:17:47;;;;;;;;;;;23.00;74.20;;;;;;5093661;28;19942;-69
2022/08/01 10:20:13;;;;;;;;;;;23.10;74.60;;;;;;5097487;28;19911;-68
2022/08/01 10:22:39;;;;;;;;;;;23.10;73.40;;;;;;5093075;28;19969;-69
2022/08/01 10:25:04;;;;;;;;;;;23.10;73.50;;;;;;5087378;28;19912;-68
2022/08/01 10:27:32;;;;;;;;;;;23.20;73.20;;;;;;5092170;28;19919;-69
2022/08/01 10:30:07;;;;;;;;;;;23.50;72.80;;;;;;5101163;28;20264;-69
2022/08/01 10:32:34;;;;;;;;;;;23.80;72.00;;;;;;5103349;28;19916;-70
2022/08/01 10:35:00;;;;;;;;;;;24.20;71.40;;;;;;5074189;28;19916;-69
2022/08/01 10:37:26;;;;;;;;;;;24.60;69.30;;;;;;5073824;28;20392;-69
2022/08/01 10:39:52;;;;;;;;;;;24.80;67.10;;;;;;5099341;28;19919;-69
2022/08/01 10:42:18;;;;;;;;;;;24.90;67.50;;;;;;5092725;28;20312;-69
2022/08/01 10:44:47;;;;;;;;;;;24.80;68.20;;;;;;5099964;28;20136;-68
2022/08/01 10:47:17;;;;;;;;;;;24.90;67.50;;;;;;5090673;28;19912;-68
2022/08/01 10:49:46;;;;;;;;;;;24.70;67.70;;;;;;5098601;28;19922;-69
2022/08/01 10:52:15;;;;;;;;;;;24.50;68.30;;;;;;5090943;28;19915;-69
2022/08/01 10:54:41;;;;;;;;;;;24.50;68.60;;;;;;5070571;28;19973;-68
2022/08/01 10:57:07;;;;;;;;;;;24.40;68.60;;;;;;5089984;28;19923;-68
2022/08/01 10:59:34;;;;;;;;;;;24.60;67.60;;;;;;5098931;28;20264;-68
2022/08/01 11:02:00;;;;;;;;;;;24.40;67.90;;;;;;5098668;28;20015;-68
2022/08/01 11:04:32;;;;;;;;;;;24.10;68.20;;;;;;5089668;28;19912;-69
2022/08/01 11:07:11;;;;;;;;;;;24.10;68.50;;;;;;5094445;28;19962;-69
2022/08/01 11:09:45;;;;;;;;;;;23.90;68.80;;;;;;5078941;28;20345;-69
2022/08/01 11:12:17;;;;;;;;;;;23.70;69.00;;;;;;5092297;28;19920;-71
2022/08/01 11:14:58;;;;;;;;;;;23.60;70.40;;;;;;5091073;28;20304;-70
2022/08/01 11:17:36;;;;;;;;;;;23.70;70.60;;;;;;5097284;28;20023;-69
2022/08/01 11:20:08;;;;;;;;;;;23.50;70.40;;;;;;5070992;28;19928;-69
2022/08/01 11:22:52;;;;;;;;;;;23.40;70.30;;;;;;5091735;28;19943;-70
2022/08/01 11:25:18;;;;;;;;;;;23.40;71.70;;;;;;5098627;28;19912;-70
2022/08/01 11:27:45;;;;;;;;;;;23.20;71.20;;;;;;5088452;28;19913;-67
2022/08/01 11:30:11;;;;;;;;;;;23.20;71.40;;;;;;5070503;28;19920;-68
2022/08/01 11:32:46;;;;;;;;;;;23.00;71.90;;;;;;5070617;28;19943;-69
2022/08/01 11:35:12;;;;;;;;;;;23.10;72.00;;;;;;5097073;28;19935;-69
2022/08/01 11:37:39;;;;;;;;;;;23.20;71.60;;;;;;5101492;28;20246;-69
2022/08/01 11:40:37;;;;;;;;;;;23.30;71.80;;;;;;5097700;28;20339;-67
2022/08/01 11:43:32;;;;;;;;;;;23.60;72.60;;;;;;5054966;28;19919;-69
2022/08/01 11:45:58;;;;;;;;;;;23.60;68.60;;;;;;5102762;28;19911;-69
2022/08/01 11:48:24;;;;;;;;;;;23.50;68.50;;;;;;5102829;28;19916;-69
2022/08/01 11:50:51;;;;;;;;;;;23.60;72.20;;;;;;5080225;28;19909;-69
2022/08/01 11:53:19;;;;;;;;;;;23.60;68.70;;;;;;5077311;28;19919;-69
2022/08/01 11:55:49;;;;;;;;;;;23.60;73.40;;;;;;5100863;28;20031;-69
2022/08/01 11:58:15;;;;;;;;;;;23.80;69.60;;;;;;5093535;28;19935;-68
2022/08/01 12:00:41;;;;;;;;;;;23.90;65.50;;;;;;5070739;28;19927;-69
2022/08/01 12:03:11;;;;;;;;;;;23.90;66.80;;;;;;5096187;28;19912;-69
2022/08/01 12:05:37;;;;;;;;;;;23.90;67.70;;;;;;5097598;28;19916;-69
2022/08/01 12:08:03;;;;;;;;;;;23.80;65.60;;;;;;5101783;28;19907;-68
2022/08/01 12:10:35;;;;;;;;;;;23.80;67.20;;;;;;5095897;28;20073;-69
2022/08/01 12:13:02;;;;;;;;;;;23.90;65.70;;;;;;5092533;28;19986;-68
2022/08/01 12:15:32;;;;;;;;;;;24.00;70.00;;;;;;5092813;28;19912;-68
2022/08/01 12:17:59;;;;;;;;;;;24.20;65.90;;;;;;5095921;28;19931;-66
2022/08/01 12:20:29;;;;;;;;;;;24.00;64.90;;;;;;5093567;28;19923;-68
2022/08/01 12:22:55;;;;;;;;;;;23.90;63.30;;;;;;5093734;28;19939;-68
2022/08/01 12:25:20;;;;;;;;;;;23.80;63.30;;;;;;5089080;28;20246;-69
2022/08/01 12:27:47;;;;;;;;;;;23.70;64.30;;;;;;5096731;28;19966;-68
2022/08/01 12:30:14;;;;;;;;;;;24.00;65.20;;;;;;5095243;28;19916;-68
2022/08/01 12:32:47;;;;;;;;;;;24.30;66.10;;;;;;5092866;28;20343;-68
2022/08/01 12:35:16;;;;;;;;;;;24.40;67.60;;;;;;5096096;28;19939;-68
2022/08/01 12:37:46;;;;;;;;;;;24.70;62.80;;;;;;5093614;28;20278;-68
2022/08/01 12:40:11;;;;;;;;;;;24.80;61.80;;;;;;5090352;28;20038;-68
2022/08/01 12:42:39;;;;;;;;;;;25.00;64.30;;;;;;5091829;28;20019;-68
2022/08/01 12:45:05;;;;;;;;;;;24.90;59.10;;;;;;5079387;28;20002;-68
2022/08/01 12:47:31;;;;;;;;;;;24.80;62.50;;;;;;5096197;28;19920;-68
2022/08/01 12:49:57;;;;;;;;;;;24.70;60.40;;;;;;5095380;28;19912;-68
2022/08/01 12:52:23;;;;;;;;;;;24.80;59.20;;;;;;5088328;28;19920;-68
2022/08/01 12:55:01;;;;;;;;;;;24.80;60.00;;;;;;5094505;28;19939;-69
2022/08/01 12:57:27;;;;;;;;;;;24.80;62.30;;;;;;5075955;28;19957;-69
2022/08/01 12:59:53;;;;;;;;;;;24.80;59.20;;;;;;5080017;28;19916;-68
2022/08/01 13:02:19;;;;;;;;;;;25.00;57.80;;;;;;5090102;28;19913;-69
2022/08/01 13:04:51;;;;;;;;;;;25.20;58.40;;;;;;5095804;28;20265;-69
2022/08/01 13:07:16;;;;;;;;;;;25.10;59.80;;;;;;5096128;28;20002;-68
2022/08/01 13:09:51;;;;;;;;;;;25.30;62.60;;;;;;5096485;28;19999;-69
2022/08/01 13:12:17;;;;;;;;;;;25.40;59.50;;;;;;5097177;28;19934;-69
2022/08/01 13:14:43;;;;;;;;;;;25.10;59.20;;;;;;5092813;28;20359;-68
2022/08/01 13:17:08;;;;;;;;;;;25.00;58.90;;;;;;5099942;28;19923;-68
2022/08/01 13:19:44;;;;;;;;;;;25.30;58.20;;;;;;5091310;28;19915;-69
2022/08/01 13:22:09;;;;;;;;;;;25.30;60.00;;;;;;5095130;28;20169;-69
2022/08/01 13:24:35;;;;;;;;;;;25.20;57.80;;;;;;5088096;28;19954;-69
2022/08/01 13:27:03;;;;;;;;;;;25.20;58.90;;;;;;5069430;28;20243;-68
2022/08/01 13:29:40;;;;;;;;;;;25.10;58.00;;;;;;5087153;28;20342;-68
2022/08/01 13:32:19;;;;;;;;;;;25.30;58.00;;;;;;5073782;28;19989;-68
2022/08/01 13:34:45;;;;;;;;;;;25.20;58.10;;;;;;5092331;28;19973;-68
2022/08/01 13:37:10;;;;;;;;;;;25.20;57.20;;;;;;5088416;28;19951;-68
2022/08/01 13:39:47;;;;;;;;;;;25.40;61.60;;;;;;5075080;28;19919;-69
2022/08/01 13:42:15;;;;;;;;;;;25.40;59.50;;;;;;5091634;28;19927;-69
2022/08/01 13:44:41;;;;;;;;;;;25.30;57.00;;;;;;5088884;28;19919;-68
2022/08/01 13:47:07;;;;;;;;;;;25.40;58.80;;;;;;5093593;28;19916;-69
2022/08/01 13:49:33;;;;;;;;;;;25.50;57.60;;;;;;5090658;28;20397;-70
2022/08/01 13:51:59;;;;;;;;;;;25.40;58.40;;;;;;5094457;28;19920;-70
2022/08/01 13:54:25;;;;;;;;;;;25.30;58.50;;;;;;5092556;28;19912;-69
2022/08/01 13:56:51;;;;;;;;;;;25.20;58.20;;;;;;5091002;28;19912;-69
2022/08/01 13:59:17;;;;;;;;;;;25.10;60.50;;;;;;5095890;28;21569;-70
2022/08/01 14:01:42;;;;;;;;;;;25.10;57.40;;;;;;5089169;28;19912;-69
2022/08/01 14:04:08;;;;;;;;;;;25.20;57.60;;;;;;5070248;28;19916;-68
2022/08/01 14:06:34;;;;;;;;;;;25.00;58.50;;;;;;5073058;28;19916;-69
2022/08/01 14:09:01;;;;;;;;;;;25.00;57.30;;;;;;5089268;28;19911;-69
2022/08/01 14:11:27;;;;;;;;;;;25.00;58.40;;;;;;5069133;28;20140;-69
2022/08/01 14:13:52;;;;;;;;;;;24.90;58.90;;;;;;5090111;28;19919;-69
2022/08/01 14:16:18;;;;;;;;;;;24.90;56.70;;;;;;5094345;28;20382;-67
2022/08/01 14:18:44;;;;;;;;;;;25.00;57.80;;;;;;5087666;28;21224;-69
2022/08/01 14:21:09;;;;;;;;;;;24.90;57.70;;;;;;5087139;28;20319;-68